Spearfish, SD

5:08 AM MST on February 21, 2017 (GMT -0700)
Black Hills-Ice | | Change Station
Active Advisory: Wind Advisory

Elev 3930 ft 44.48 °N, 103.78 °W | Updated 13 minutes ago

Mostly Cloudy
Mostly Cloudy
52 °F
Feels Like 52 °F
N
25
Wind Variable Wind from SW
Gusts 37 mph

Today
High -- | Low -- °F
--% Chance of Precip.
Yesterday
High -- | Low -- °F
Precip. -- in
Pressure 29.75 in
Visibility 10.0 miles
Clouds Mostly Cloudy 12000 ft
Dew Point 32 °F
Humidity 47%
Rainfall 0.00 in
Snow Depth Not available.
6:45 AM 5:32 PM
Waning Crescent, 26% visible
METAR KSPF 211155Z AUTO 23022G32KT 10SM BKN120 11/M00 A2975 RMK AO2
Pressure 29.75 in
Visibility 10.0 miles
Clouds Mostly Cloudy 12000 ft
Dew Point 32 °F
Humidity 47%
Rainfall 0.00 in
Snow Depth Not available.
6:45 AM 5:32 PM
Waning Crescent, 26% visible
METAR KSPF 211155Z AUTO 23022G32KT 10SM BKN120 11/M00 A2975 RMK AO2

Get Your Daily Forecast Email!

Thanks for signing up!

Be on the lookout for a verification email in your inbox.

You'll start receiving the daily forecast at 8 AM.

×

10-Day Weather Forecast

Almanac

Astronomy

Feb. 21, 2017 Rise Set
Actual Time
Civil Twilight
Nautical Twilight
Astronomical Twilight
Moon
Length of Visible Light
Length of Day
Tomorrow will be .
, % of the Moon is Illuminated

Today's Extremes

State Highs State Lows

Community

WunderPhotos

Upload Photos

1,962,540 photos uploaded!

WunderBlog® & News

Nearby

Air Quality

  Air Quality AQ Index Pollutant
Not available.

Snow Depth

Station Depth Elevation

Earthquake Activity

City Distance Mag. Time & Date
Minimum magnitude displayed is 2.5.

Coastal Water Temperatures

Place Temperature

Stations

Nearby Weather Stations

Station Location Temp. Windchill Dew Point Humidity Wind Precip. Elev Updated Type
                   

Watches & Warnings

Wind Advisory
Issued: 4:01 AM MST Feb. 21, 2017 – National Weather Service

... Wind Advisory remains in effect until 5 PM MST this
afternoon...

* timing... gusty westerly winds will continue at times through
this afternoon.

* Winds... west 20 to 35 mph with gusts up to 50 mph.

* Impacts... sudden wind gusts can cause drivers to lose control,
especially in lightweight or high profile vehicles. Strong
winds can cause blowing dust, reduced visibility, and flying
debris.

Precautionary/preparedness actions...

A Wind Advisory means 30 mph winds... or gusts over 45 mph... are
expected or occurring.